Time;durP1;ratioP1;P1;durP2;ratioP2;P2;SDS_P1;SDS_P2;PMS_P1;PMS_P2;Temp;Humidity;BMP_temperature;BMP_pressure;BME280_temperature;BME280_humidity;BME280_pressure;Samples;Min_cycle;Max_cycle;Signal;HPM_P1;HPM_P2
2022/01/26 00:07:04;;;;;;;82.63;38.53;;;3.60;99.90;;;;;;5012219;28;20167;-61
2022/01/26 00:09:30;;;;;;;81.60;36.20;;;5.40;99.90;;;;;;4993965;28;20503;-61
2022/01/26 00:11:56;;;;;;;74.78;35.55;;;3.40;99.90;;;;;;5010973;28;20038;-61
2022/01/26 00:14:22;;;;;;;80.47;34.92;;;3.60;99.90;;;;;;4965750;28;20085;-61
2022/01/26 00:16:47;;;;;;;78.90;35.83;;;3.60;99.90;;;;;;4974780;28;20046;-61
2022/01/26 00:19:22;;;;;;;90.35;40.97;;;3.30;99.90;;;;;;4974316;28;20050;-61
2022/01/26 00:21:53;;;;;;;88.63;35.33;;;3.50;99.90;;;;;;4974493;28;20060;-61
2022/01/26 00:29:25;;;;;;;74.13;33.05;;;3.70;99.90;;;;;;5007173;28;20050;-61
2022/01/26 00:40:17;;;;;;;82.65;36.42;;;3.60;99.90;;;;;;4974164;28;20053;-61
2022/01/26 00:42:45;;;;;;;85.32;38.80;;;3.70;99.90;;;;;;4991361;28;20096;-61
2022/01/26 00:45:11;;;;;;;81.82;36.10;;;3.70;99.90;;;;;;4991970;28;20065;-61
2022/01/26 00:47:37;;;;;;;80.63;34.08;;;3.70;99.90;;;;;;4990522;28;20472;-61
2022/01/26 00:50:09;;;;;;;81.55;37.50;;;3.60;99.90;;;;;;4974380;28;20099;-61
2022/01/26 00:52:43;;;;;;;79.90;37.13;;;4.20;99.90;;;;;;4992451;28;20051;-60
2022/01/26 00:55:19;;;;;;;89.82;37.95;;;3.70;99.90;;;;;;4993277;28;20052;-61
2022/01/26 00:57:46;;;;;;;101.97;40.03;;;3.70;99.90;;;;;;4977253;28;20375;-61
2022/01/26 01:00:24;;;;;;;83.85;35.40;;;3.70;99.90;;;;;;4993512;28;20050;-61
2022/01/26 01:02:52;;;;;;;85.97;36.00;;;3.70;99.90;;;;;;4992598;28;20072;-61
2022/01/26 01:05:22;;;;;;;84.10;36.00;;;3.70;99.90;;;;;;4985905;28;20050;-61
2022/01/26 01:07:52;;;;;;;72.88;35.05;;;3.60;99.90;;;;;;4973533;28;20038;-61
2022/01/26 01:10:21;;;;;;;88.18;38.60;;;3.70;99.90;;;;;;5006660;28;20038;-61
2022/01/26 01:12:49;;;;;;;75.72;35.88;;;3.70;99.90;;;;;;5001668;28;20041;-61
2022/01/26 01:15:15;;;;;;;82.00;38.15;;;3.70;99.90;;;;;;4993048;28;20494;-61
2022/01/26 01:17:47;;;;;;;87.18;38.70;;;3.70;99.90;;;;;;4992980;28;20056;-61
2022/01/26 01:25:59;;;;;;;79.75;37.60;;;3.70;99.90;;;;;;4993426;28;20130;-61
2022/01/26 01:30:44;;;;;;;84.35;37.53;;;3.70;99.90;;;;;;5004081;28;20053;-61
2022/01/26 01:33:14;;;;;;;82.15;36.97;;;3.60;99.90;;;;;;4991106;28;20125;-61
2022/01/26 01:35:42;;;;;;;87.80;38.50;;;3.70;99.90;;;;;;5000141;28;20050;-61
2022/01/26 01:38:11;;;;;;;80.22;38.60;;;3.70;99.90;;;;;;5010002;28;20048;-61
2022/01/26 01:40:38;;;;;;;79.72;36.83;;;3.70;99.90;;;;;;5009920;28;20487;-61
2022/01/26 01:43:05;;;;;;;84.25;39.53;;;3.70;99.90;;;;;;4992275;28;20054;-61
2022/01/26 01:45:36;;;;;;;84.63;38.30;;;3.70;99.90;;;;;;4992600;28;20129;-61
2022/01/26 01:48:03;;;;;;;76.05;36.55;;;3.40;99.90;;;;;;4992909;28;20064;-61
2022/01/26 01:50:30;;;;;;;80.40;37.58;;;4.00;99.90;;;;;;4991422;28;20072;-61
2022/01/26 01:53:00;;;;;;;75.32;36.83;;;3.70;99.90;;;;;;4992584;28;20050;-61
2022/01/26 01:55:28;;;;;;;84.65;38.92;;;3.70;99.90;;;;;;4992528;28;20498;-61
2022/01/26 01:57:56;;;;;;;78.55;37.72;;;3.70;99.90;;;;;;4975589;28;20042;-61
2022/01/26 02:00:26;;;;;;;81.03;38.47;;;3.70;99.90;;;;;;5010270;28;20042;-61
2022/01/26 02:02:52;;;;;;;73.38;36.10;;;3.80;99.90;;;;;;5005984;28;20034;-61
2022/01/26 02:05:18;;;;;;;79.65;39.33;;;3.70;99.90;;;;;;4956481;28;20099;-61
2022/01/26 02:07:44;;;;;;;79.15;40.10;;;3.70;99.90;;;;;;4989028;28;20039;-61
2022/01/26 02:10:11;;;;;;;77.43;37.33;;;3.70;99.90;;;;;;4957341;28;20053;-60
2022/01/26 02:12:45;;;;;;;68.35;36.28;;;3.70;99.90;;;;;;4998279;28;20395;-61
2022/01/26 02:15:17;;;;;;;73.00;37.05;;;4.70;99.90;;;;;;4992390;28;20057;-60
2022/01/26 03:03:27;;;;;;;57.30;30.13;;;3.70;99.90;;;;;;5005395;28;20073;-61
2022/01/26 03:06:04;;;;;;;54.83;29.48;;;3.70;99.90;;;;;;4972227;28;20054;-60
2022/01/26 03:08:37;;;;;;;57.35;28.65;;;3.60;99.90;;;;;;4971553;28;20491;-61
2022/01/26 03:11:09;;;;;;;60.05;29.27;;;3.60;99.90;;;;;;4989956;28;20432;-61
2022/01/26 03:13:40;;;;;;;65.40;33.30;;;3.70;99.90;;;;;;4984362;28;20116;-61
2022/01/26 03:16:14;;;;;;;55.15;30.00;;;3.70;99.90;;;;;;5008686;28;20048;-61
2022/01/26 03:18:54;;;;;;;57.90;29.47;;;3.60;99.90;;;;;;4991248;28;20509;-61
2022/01/26 03:21:27;;;;;;;54.22;28.58;;;3.60;99.90;;;;;;4991661;28;20057;-61
2022/01/26 03:34:34;;;;;;;53.88;29.67;;;3.70;99.90;;;;;;5007670;28;20080;-61
2022/01/26 03:37:05;;;;;;;51.88;28.27;;;3.80;99.90;;;;;;4958689;28;20058;-61
2022/01/26 03:39:39;;;;;;;51.47;28.20;;;3.60;99.90;;;;;;4992960;28;20403;-61
2022/01/26 03:42:08;;;;;;;53.70;30.85;;;3.60;99.90;;;;;;4993101;28;20081;-61
2022/01/26 03:44:33;;;;;;;53.50;28.95;;;3.60;99.90;;;;;;4991600;28;20054;-61
2022/01/26 03:47:00;;;;;;;59.90;30.80;;;3.60;99.90;;;;;;4996732;28;20395;-61
2022/01/26 03:49:26;;;;;;;55.45;30.65;;;3.60;99.90;;;;;;4959081;28;20071;-61
2022/01/26 03:51:51;;;;;;;57.00;30.27;;;3.60;99.90;;;;;;4974512;28;20046;-61
2022/01/26 03:54:18;;;;;;;50.65;30.40;;;3.60;99.90;;;;;;4975774;28;20044;-61
2022/01/26 03:56:44;;;;;;;60.97;31.45;;;3.30;99.90;;;;;;4973881;28;20046;-61
2022/01/26 03:59:10;;;;;;;61.75;32.42;;;3.60;99.90;;;;;;4975387;28;20042;-61
2022/01/26 04:01:37;;;;;;;54.88;31.52;;;3.60;99.90;;;;;;4992342;28;20479;-61
2022/01/26 04:04:03;;;;;;;55.97;31.30;;;3.60;99.90;;;;;;4974709;28;20147;-61
2022/01/26 04:06:30;;;;;;;54.25;29.92;;;3.60;99.90;;;;;;4975027;28;20078;-61
2022/01/26 04:08:56;;;;;;;59.40;32.63;;;3.60;99.90;;;;;;4975107;28;20069;-61
2022/01/26 04:11:42;;;;;;;55.17;30.77;;;3.90;99.90;;;;;;4991692;28;20479;-61
2022/01/26 04:14:12;;;;;;;59.00;29.73;;;3.60;99.90;;;;;;4975149;28;20117;-61
2022/01/26 04:16:39;;;;;;;60.92;29.42;;;3.50;99.90;;;;;;5006647;28;20038;-61
2022/01/26 04:19:06;;;;;;;61.35;30.02;;;3.50;99.90;;;;;;4993975;28;20486;-61
2022/01/26 04:21:45;;;;;;;58.22;29.33;;;3.50;99.90;;;;;;5011473;28;20439;-61
2022/01/26 04:26:48;;;;;;;56.97;30.05;;;3.50;99.90;;;;;;5034809;28;20554;-61
2022/01/26 04:29:24;;;;;;;56.10;27.55;;;3.50;99.90;;;;;;4973249;28;20047;-61
2022/01/26 04:31:50;;;;;;;60.85;28.83;;;3.50;99.90;;;;;;4973759;28;20042;-61
2022/01/26 04:34:16;;;;;;;58.85;28.77;;;3.50;99.90;;;;;;4974473;28;20494;-61
2022/01/26 04:39:21;;;;;;;58.35;27.90;;;3.50;99.90;;;;;;5006448;28;20051;-61
2022/01/26 04:41:58;;;;;;;59.88;26.95;;;3.50;99.90;;;;;;4974318;28;20046;-61
2022/01/26 04:44:28;;;;;;;59.28;28.80;;;3.50;99.90;;;;;;5009655;28;20100;-61
2022/01/26 04:46:54;;;;;;;55.90;26.55;;;3.50;99.90;;;;;;4987915;28;20107;-61
2022/01/26 04:49:20;;;;;;;56.20;26.92;;;3.50;99.90;;;;;;4997001;28;20034;-61
2022/01/26 04:51:45;;;;;;;61.50;27.88;;;3.50;99.90;;;;;;4993070;28;20484;-61
2022/01/26 04:54:12;;;;;;;60.72;27.90;;;3.40;99.90;;;;;;4993356;28;20046;-61
2022/01/26 04:56:38;;;;;;;59.30;29.67;;;3.50;99.90;;;;;;4993279;28;20046;-61
2022/01/26 04:59:04;;;;;;;63.63;28.13;;;3.50;99.90;;;;;;5011312;28;20129;-61
2022/01/26 05:01:30;;;;;;;58.10;28.02;;;3.40;99.90;;;;;;4998816;28;20085;-61
2022/01/26 05:03:56;;;;;;;58.58;28.25;;;3.40;99.90;;;;;;4991685;28;20070;-61
2022/01/26 05:06:21;;;;;;;67.25;29.63;;;3.40;99.90;;;;;;5006699;28;20126;-61
2022/01/26 05:08:47;;;;;;;64.25;27.48;;;3.40;99.90;;;;;;5006049;28;20182;-61
2022/01/26 05:11:18;;;;;;;60.42;26.45;;;3.40;99.90;;;;;;5001369;28;20050;-61
2022/01/26 05:13:44;;;;;;;58.97;25.35;;;3.40;99.90;;;;;;4973573;28;20042;-61
2022/01/26 05:16:10;;;;;;;53.33;26.65;;;3.40;99.90;;;;;;4973447;28;20054;-61
2022/01/26 05:18:36;;;;;;;56.40;26.23;;;3.40;99.90;;;;;;4973483;28;20050;-61
2022/01/26 05:21:02;;;;;;;57.92;26.30;;;3.40;99.90;;;;;;4997879;28;20037;-61
2022/01/26 05:23:27;;;;;;;61.53;30.13;;;3.30;99.90;;;;;;4993260;28;20046;-61
2022/01/26 05:25:54;;;;;;;61.05;25.83;;;3.20;99.90;;;;;;4993362;28;20090;-61
2022/01/26 05:28:19;;;;;;;57.50;28.83;;;3.40;99.90;;;;;;4992626;28;20121;-61
2022/01/26 05:30:45;;;;;;;61.65;27.05;;;3.30;99.90;;;;;;5006503;28;20118;-61
2022/01/26 05:33:10;;;;;;;52.40;24.92;;;3.40;99.90;;;;;;4991649;28;20043;-61
2022/01/26 05:35:36;;;;;;;55.58;26.95;;;3.30;99.90;;;;;;4956747;28;20080;-61
2022/01/26 05:38:02;;;;;;;57.72;25.83;;;3.40;99.90;;;;;;5006845;28;20411;-61
2022/01/26 05:40:28;;;;;;;59.17;28.05;;;3.40;99.90;;;;;;4991679;28;20046;-61
2022/01/26 05:42:54;;;;;;;56.00;26.98;;;3.40;99.90;;;;;;4992067;28;20083;-60
2022/01/26 05:45:34;;;;;;;62.13;26.50;;;3.30;99.90;;;;;;4993329;28;20110;-61
2022/01/26 05:48:03;;;;;;;66.03;29.08;;;3.30;99.90;;;;;;4976677;28;20099;-61
2022/01/26 05:50:29;;;;;;;61.33;28.05;;;3.20;99.90;;;;;;4974799;28;20129;-60
2022/01/26 05:52:55;;;;;;;58.03;27.52;;;3.30;99.90;;;;;;4973556;28;20060;-61
2022/01/26 05:55:21;;;;;;;59.13;27.30;;;3.40;99.90;;;;;;4991358;28;20057;-60
2022/01/26 05:57:46;;;;;;;59.20;27.40;;;3.30;99.90;;;;;;5004768;28;20438;-61
2022/01/26 06:00:13;;;;;;;59.22;27.75;;;3.30;99.90;;;;;;4990962;28;20034;-61
2022/01/26 06:02:38;;;;;;;62.70;28.50;;;3.40;99.90;;;;;;5008267;28;20379;-61
2022/01/26 06:05:05;;;;;;;61.20;27.92;;;3.40;99.90;;;;;;4992445;28;20042;-61
2022/01/26 06:07:30;;;;;;;59.58;28.70;;;3.40;99.90;;;;;;4992560;28;20042;-61
2022/01/26 06:09:56;;;;;;;68.78;30.77;;;3.40;99.90;;;;;;4976235;28;20052;-61
2022/01/26 06:12:21;;;;;;;62.92;28.55;;;3.30;99.90;;;;;;4976653;28;20042;-60
2022/01/26 06:14:47;;;;;;;58.97;28.02;;;3.40;99.90;;;;;;5005328;28;20050;-61
2022/01/26 06:17:13;;;;;;;58.45;29.98;;;3.70;99.90;;;;;;4957495;28;20051;-61
2022/01/26 06:19:38;;;;;;;69.22;30.83;;;3.40;99.90;;;;;;5004511;28;20478;-60
2022/01/26 06:22:04;;;;;;;67.28;32.17;;;3.40;99.90;;;;;;4985494;28;20049;-60
2022/01/26 06:24:30;;;;;;;65.13;31.02;;;3.30;99.90;;;;;;4991660;28;20050;-61
2022/01/26 06:26:55;;;;;;;69.35;32.90;;;3.50;99.90;;;;;;5009537;28;20068;-61
2022/01/26 06:29:21;;;;;;;62.03;31.20;;;3.40;99.90;;;;;;4992822;28;20077;-61
2022/01/26 06:31:47;;;;;;;62.53;29.30;;;3.50;99.90;;;;;;4980998;28;20455;-61
2022/01/26 06:34:12;;;;;;;59.63;31.35;;;3.50;99.90;;;;;;5005582;28;20049;-61
2022/01/26 06:36:47;;;;;;;65.80;31.45;;;3.50;99.90;;;;;;4989977;28;20048;-61
2022/01/26 06:39:14;;;;;;;63.33;30.95;;;3.50;99.90;;;;;;4989739;28;20038;-61
2022/01/26 06:41:48;;;;;;;68.40;34.83;;;3.50;99.90;;;;;;4998135;28;20037;-61
2022/01/26 06:44:26;;;;;;;59.10;29.77;;;3.50;99.90;;;;;;4992422;28;20042;-61
2022/01/26 06:47:13;;;;;;;66.93;32.03;;;3.50;99.90;;;;;;4991741;28;20038;-61
2022/01/26 06:49:38;;;;;;;59.50;31.75;;;3.60;99.90;;;;;;4991450;28;20050;-61
2022/01/26 06:52:04;;;;;;;62.42;31.10;;;3.60;99.90;;;;;;4980269;28;20441;-61
2022/01/26 06:54:30;;;;;;;69.07;34.40;;;3.60;99.90;;;;;;4971714;28;20042;-61
2022/01/26 06:56:55;;;;;;;62.70;30.00;;;3.50;99.90;;;;;;4989127;28;20085;-61
2022/01/26 06:59:24;;;;;;;63.45;32.85;;;3.60;99.90;;;;;;4972330;28;20042;-61
2022/01/26 07:01:50;;;;;;;67.03;32.53;;;3.60;99.90;;;;;;4981049;28;20463;-61
2022/01/26 07:04:16;;;;;;;70.47;35.35;;;3.70;99.90;;;;;;4992386;28;20073;-61
2022/01/26 07:06:41;;;;;;;72.70;34.35;;;3.60;99.90;;;;;;4991491;28;20080;-61
2022/01/26 07:09:07;;;;;;;63.28;32.45;;;3.60;99.90;;;;;;5009642;28;20069;-61
2022/01/26 07:11:33;;;;;;;67.15;33.80;;;3.70;99.90;;;;;;5001890;28;20030;-60
2022/01/26 07:14:00;;;;;;;63.17;32.35;;;4.00;99.90;;;;;;5004218;28;20395;-61
2022/01/26 07:21:55;;;;;;;66.00;32.75;;;3.70;99.90;;;;;;4981296;28;20050;-60
2022/01/26 07:24:21;;;;;;;61.65;31.70;;;3.60;99.90;;;;;;5009250;28;20048;-60
2022/01/26 07:26:50;;;;;;;60.58;30.88;;;3.70;99.90;;;;;;4991734;28;20076;-61
2022/01/26 07:29:21;;;;;;;63.17;34.08;;;3.70;99.90;;;;;;4991456;28;20046;-60
2022/01/26 07:31:47;;;;;;;64.50;33.35;;;3.80;99.90;;;;;;4999936;28;20042;-61
2022/01/26 07:34:14;;;;;;;53.60;27.05;;;3.80;99.90;;;;;;4956416;28;20059;-61
2022/01/26 07:36:41;;;;;;;54.58;29.05;;;3.70;99.90;;;;;;4971059;28;20064;-60
2022/01/26 07:39:11;;;;;;;53.88;26.88;;;3.80;99.90;;;;;;4989540;28;20546;-61
2022/01/26 07:41:37;;;;;;;46.30;25.67;;;3.80;99.90;;;;;;4978873;28;20077;-61
2022/01/26 07:44:04;;;;;;;56.47;27.83;;;3.90;99.90;;;;;;4990659;28;20073;-61
2022/01/26 07:46:30;;;;;;;46.47;26.15;;;3.90;99.90;;;;;;4991339;28;20053;-60
2022/01/26 07:48:56;;;;;;;46.38;23.63;;;3.90;99.90;;;;;;4990688;28;20046;-61
2022/01/26 07:51:22;;;;;;;45.15;23.42;;;3.90;99.90;;;;;;5004001;28;20050;-61
2022/01/26 07:53:48;;;;;;;51.67;26.25;;;3.90;99.90;;;;;;4971549;28;20050;-60
2022/01/26 07:56:14;;;;;;;51.13;25.35;;;4.00;99.90;;;;;;4988605;28;20046;-61
2022/01/26 07:58:41;;;;;;;54.40;26.85;;;4.00;99.90;;;;;;4971728;28;20272;-61
2022/01/26 08:01:06;;;;;;;48.10;25.10;;;4.00;99.90;;;;;;4986382;28;20054;-61
2022/01/26 08:03:33;;;;;;;49.47;27.40;;;4.00;99.90;;;;;;5003144;28;20045;-60
2022/01/26 08:06:07;;;;;;;54.70;26.83;;;4.10;99.90;;;;;;4971747;28;20046;-60
2022/01/26 08:08:33;;;;;;;55.97;28.73;;;4.00;99.90;;;;;;4971518;28;20039;-61
2022/01/26 08:11:00;;;;;;;54.53;28.80;;;4.00;99.90;;;;;;4975956;28;20047;-61
2022/01/26 08:13:26;;;;;;;54.53;28.27;;;4.00;99.90;;;;;;4994624;28;20111;-60
2022/01/26 08:15:57;;;;;;;53.30;29.15;;;4.00;99.90;;;;;;4978193;28;20050;-61
2022/01/26 08:18:24;;;;;;;58.00;29.20;;;4.00;99.90;;;;;;4993759;28;20490;-60
2022/01/26 08:20:50;;;;;;;55.72;28.42;;;4.00;99.90;;;;;;4998111;28;20124;-61
2022/01/26 08:23:17;;;;;;;61.13;30.65;;;4.00;99.90;;;;;;4994439;28;20120;-61
2022/01/26 08:25:42;;;;;;;59.80;31.15;;;4.00;99.90;;;;;;4993013;28;20050;-61
2022/01/26 08:28:19;;;;;;;59.42;30.60;;;4.00;99.90;;;;;;4994505;28;20547;-61
2022/01/26 08:30:45;;;;;;;54.00;29.35;;;4.00;99.90;;;;;;4988642;28;20049;-61
2022/01/26 08:33:11;;;;;;;59.22;31.33;;;4.10;99.90;;;;;;4958264;28;20125;-61
2022/01/26 08:35:38;;;;;;;62.85;32.65;;;4.10;99.90;;;;;;4974598;28;20100;-61
2022/01/26 08:38:04;;;;;;;59.50;32.78;;;4.20;99.90;;;;;;4975052;28;20506;-61
2022/01/26 08:40:33;;;;;;;61.45;31.52;;;4.10;99.90;;;;;;4985810;28;20119;-61
2022/01/26 08:42:59;;;;;;;64.55;32.10;;;4.10;99.90;;;;;;5088123;28;20038;-61
2022/01/26 08:45:25;;;;;;;63.90;30.25;;;4.10;99.90;;;;;;5001793;28;20054;-61
2022/01/26 08:47:51;;;;;;;56.10;29.13;;;4.10;99.90;;;;;;4982350;28;20046;-61
2022/01/26 08:50:17;;;;;;;62.65;33.90;;;4.10;99.90;;;;;;4974223;28;20414;-61
2022/01/26 08:52:43;;;;;;;58.03;29.73;;;4.20;99.90;;;;;;4959393;28;20141;-61
2022/01/26 08:55:10;;;;;;;66.95;31.58;;;4.20;99.90;;;;;;4979906;28;20129;-61
2022/01/26 08:57:36;;;;;;;58.78;29.90;;;4.20;99.90;;;;;;4972073;28;20050;-61
2022/01/26 09:00:05;;;;;;;65.38;31.27;;;4.20;99.90;;;;;;5004062;28;20054;-61
2022/01/26 09:02:30;;;;;;;60.75;30.20;;;4.30;99.90;;;;;;4983994;28;20596;-61
2022/01/26 09:04:56;;;;;;;61.25;28.55;;;4.30;99.90;;;;;;4988548;28;20042;-61
2022/01/26 09:07:22;;;;;;;59.83;28.90;;;4.40;99.90;;;;;;4987769;28;20133;-61
2022/01/26 09:09:48;;;;;;;55.97;26.85;;;4.40;99.90;;;;;;4992481;28;20045;-61
2022/01/26 09:12:17;;;;;;;58.03;27.27;;;4.40;99.90;;;;;;5006220;28;20038;-61
2022/01/26 09:14:43;;;;;;;50.80;23.00;;;4.40;99.90;;;;;;4994620;28;20049;-61
2022/01/26 09:17:11;;;;;;;54.05;26.05;;;4.50;99.90;;;;;;5020449;28;20505;-61
2022/01/26 09:19:37;;;;;;;50.63;25.55;;;4.70;99.90;;;;;;5075067;28;20417;-61
2022/01/26 09:22:07;;;;;;;55.28;25.23;;;4.50;99.90;;;;;;5084059;28;20047;-61
2022/01/26 09:24:37;;;;;;;50.47;25.23;;;4.60;99.90;;;;;;5048944;28;20057;-61
2022/01/26 09:27:04;;;;;;;49.65;24.63;;;4.50;99.90;;;;;;5034560;28;20042;-61
2022/01/26 09:29:30;;;;;;;45.95;22.90;;;4.40;99.90;;;;;;4980862;28;20208;-61
2022/01/26 09:31:57;;;;;;;47.95;22.25;;;4.60;99.90;;;;;;4954851;28;20559;-61
2022/01/26 09:34:24;;;;;;;42.05;22.05;;;4.60;99.90;;;;;;5025300;28;20052;-60
2022/01/26 09:36:51;;;;;;;47.90;21.08;;;4.50;99.90;;;;;;5075407;28;20045;-61
2022/01/26 09:39:19;;;;;;;42.17;21.23;;;4.70;99.90;;;;;;5076081;28;20081;-61
2022/01/26 09:41:48;;;;;;;43.80;21.42;;;4.70;99.90;;;;;;5057498;28;20118;-61
2022/01/26 09:44:14;;;;;;;42.67;21.20;;;4.50;99.90;;;;;;5003387;28;20121;-61
2022/01/26 09:46:40;;;;;;;43.35;21.85;;;4.70;99.90;;;;;;4970190;28;20051;-61
2022/01/26 09:49:07;;;;;;;46.30;22.90;;;4.70;99.90;;;;;;4969572;28;20041;-61
2022/01/26 09:51:39;;;;;;;43.20;22.92;;;4.70;99.90;;;;;;4970601;28;20093;-61
2022/01/26 09:54:13;;;;;;;52.35;22.13;;;4.60;99.90;;;;;;4970607;28;20145;-61
2022/01/26 09:56:39;;;;;;;48.60;23.42;;;4.80;99.90;;;;;;4969654;28;20054;-61
2022/01/26 09:59:06;;;;;;;45.13;20.75;;;4.60;99.90;;;;;;4984926;28;20053;-61
2022/01/26 10:01:44;;;;;;;50.13;23.10;;;4.70;99.90;;;;;;5002380;28;20045;-61
2022/01/26 10:04:32;;;;;;;46.22;23.35;;;4.70;99.90;;;;;;4960331;28;20058;-61
2022/01/26 10:07:00;;;;;;;45.50;22.13;;;4.80;99.90;;;;;;4983682;28;20046;-61
2022/01/26 10:09:45;;;;;;;47.15;22.58;;;4.80;99.90;;;;;;5051329;28;20098;-60
2022/01/26 10:17:45;;;;;;;42.50;23.10;;;5.00;99.90;;;;;;4978807;28;20136;-61
2022/01/26 10:20:15;;;;;;;45.25;21.98;;;4.80;99.90;;;;;;4988689;28;20104;-61
2022/01/26 10:22:42;;;;;;;48.40;21.23;;;4.70;99.90;;;;;;4970743;28;20441;-61
2022/01/26 10:25:15;;;;;;;42.35;21.63;;;4.70;99.90;;;;;;5073138;28;20057;-61
2022/01/26 10:27:59;;;;;;;45.95;23.13;;;4.70;99.90;;;;;;5072317;28;20386;-61
2022/01/26 10:30:25;;;;;;;50.22;24.85;;;4.70;99.90;;;;;;4970478;28;20053;-61
2022/01/26 10:32:51;;;;;;;53.22;24.92;;;4.90;99.90;;;;;;5001023;28;20050;-61
2022/01/26 10:35:17;;;;;;;55.83;23.70;;;4.70;99.90;;;;;;4990294;28;20041;-61
2022/01/26 10:37:55;;;;;;;49.20;27.25;;;4.80;99.90;;;;;;4989178;28;20128;-61
2022/01/26 10:40:25;;;;;;;48.95;24.20;;;4.90;99.90;;;;;;5022367;28;20081;-61
2022/01/26 10:43:08;;;;;;;44.72;24.33;;;4.70;99.90;;;;;;5007520;28;20092;-61
2022/01/26 10:45:57;;;;;;;47.63;24.67;;;4.90;99.90;;;;;;5007466;28;20046;-61
2022/01/26 10:48:36;;;;;;;45.55;23.20;;;4.90;99.90;;;;;;4972777;28;20038;-61
2022/01/26 10:51:32;;;;;;;52.80;23.27;;;5.00;99.90;;;;;;5034805;28;20099;-61
2022/01/26 10:54:04;;;;;;;45.08;23.15;;;4.90;99.90;;;;;;5051280;28;20044;-61
2022/01/26 10:56:29;;;;;;;50.97;23.70;;;4.90;99.90;;;;;;5051196;28;20041;-61
2022/01/26 10:58:58;;;;;;;45.15;22.48;;;4.70;99.90;;;;;;5050696;28;21067;-61
2022/01/26 11:01:23;;;;;;;51.78;24.63;;;4.80;99.90;;;;;;5068215;28;20511;-61
2022/01/26 11:03:49;;;;;;;52.35;24.80;;;5.10;99.90;;;;;;5070240;28;20048;-61
2022/01/26 11:06:18;;;;;;;48.00;24.40;;;5.30;99.90;;;;;;5071471;28;20051;-61
2022/01/26 11:08:44;;;;;;;47.33;25.55;;;;;;;;;;5071730;28;20107;-61
2022/01/26 11:11:21;;;;;;;52.25;27.25;;;4.80;99.90;;;;;;5072561;28;20049;-61
2022/01/26 11:13:47;;;;;;;48.55;27.23;;;4.90;99.90;;;;;;5063198;28;20044;-61
2022/01/26 11:16:14;;;;;;;48.33;26.52;;;5.00;99.90;;;;;;5061254;28;20041;-61
2022/01/26 11:18:50;;;;;;;58.75;26.98;;;4.90;99.90;;;;;;5052791;28;20087;-61
2022/01/26 11:21:33;;;;;;;52.22;27.00;;;4.90;99.90;;;;;;5062263;28;20052;-61
2022/01/26 11:24:18;;;;;;;51.15;26.25;;;4.80;99.90;;;;;;5050445;28;20045;-61
2022/01/26 11:26:46;;;;;;;43.77;24.47;;;4.80;99.90;;;;;;5051253;28;20390;-61
2022/01/26 11:29:14;;;;;;;54.95;25.45;;;5.00;99.90;;;;;;5051027;28;20784;-61
2022/01/26 11:31:41;;;;;;;49.35;25.60;;;4.90;99.90;;;;;;5056979;28;20040;-61
2022/01/26 11:34:07;;;;;;;54.47;25.77;;;4.90;99.90;;;;;;5070134;28;20073;-61
2022/01/26 11:36:33;;;;;;;48.65;23.20;;;5.00;99.90;;;;;;5057110;28;20044;-61
2022/01/26 11:47:18;;;;;;;57.97;27.65;;;4.80;99.90;;;;;;5088041;28;20084;-61
2022/01/26 11:49:44;;;;;;;50.03;28.33;;;4.90;99.90;;;;;;5086472;28;20059;-61
2022/01/26 11:52:25;;;;;;;63.75;30.13;;;5.50;99.90;;;;;;5085844;28;20109;-61
2022/01/26 11:54:53;;;;;;;58.67;27.85;;;5.10;99.90;;;;;;5055013;28;20563;-61
2022/01/26 11:57:35;;;;;;;52.92;25.98;;;5.10;99.90;;;;;;5072269;28;20103;-61
2022/01/26 12:00:08;;;;;;;55.17;25.40;;;5.30;99.90;;;;;;5073330;28;20052;-61
2022/01/26 12:02:57;;;;;;;54.97;24.92;;;4.90;99.90;;;;;;5073128;28;20044;-61
2022/01/26 12:05:25;;;;;;;53.58;26.35;;;5.00;99.90;;;;;;5070241;28;20036;-60
2022/01/26 12:08:02;;;;;;;47.75;23.50;;;5.10;99.90;;;;;;5056586;28;20053;-61
2022/01/26 12:10:32;;;;;;;52.55;25.05;;;5.10;99.90;;;;;;5053264;28;20108;-61
2022/01/26 12:13:06;;;;;;;48.03;24.17;;;5.20;99.90;;;;;;5059044;28;20053;-60
2022/01/26 12:15:52;;;;;;;48.03;25.35;;;5.20;99.90;;;;;;5079171;28;20121;-60
2022/01/26 12:18:35;;;;;;;50.50;24.27;;;5.20;99.90;;;;;;5088217;28;20044;-60
2022/01/26 12:32:23;;;;;;;44.72;23.35;;;5.10;99.90;;;;;;5072785;28;20003;-61
2022/01/26 12:37:37;;;;;;;47.70;23.23;;;5.30;99.90;;;;;;5072770;28;20048;-60
2022/01/26 12:45:23;;;;;;;44.08;24.60;;;5.40;99.90;;;;;;5056016;28;20063;-61
2022/01/26 12:47:51;;;;;;;45.38;23.77;;;5.40;99.90;;;;;;5052701;28;20132;-60
2022/01/26 12:50:17;;;;;;;47.75;21.85;;;5.40;99.90;;;;;;5037122;28;20502;-60
2022/01/26 12:52:51;;;;;;;50.85;24.45;;;5.40;99.90;;;;;;5051739;28;20049;-61
2022/01/26 12:55:26;;;;;;;49.20;24.60;;;5.40;99.90;;;;;;5068580;28;20044;-61
2022/01/26 12:57:54;;;;;;;47.90;24.92;;;5.40;99.90;;;;;;5035926;28;20095;-61
2022/01/26 13:00:21;;;;;;;45.63;23.00;;;5.40;99.90;;;;;;5053565;28;20040;-61
2022/01/26 13:02:47;;;;;;;46.58;22.45;;;5.40;99.90;;;;;;5052518;28;20060;-61
2022/01/26 13:05:15;;;;;;;49.13;26.23;;;5.40;99.90;;;;;;5066803;28;20033;-61
2022/01/26 13:07:41;;;;;;;46.78;23.08;;;5.50;99.90;;;;;;5057175;28;20060;-61
2022/01/26 13:10:17;;;;;;;50.03;22.50;;;5.50;99.90;;;;;;5053107;28;20080;-61
2022/01/26 13:12:43;;;;;;;48.03;22.90;;;5.60;99.90;;;;;;5058928;28;20397;-61
2022/01/26 13:17:51;;;;;;;44.53;22.90;;;6.60;99.90;;;;;;5071406;28;20045;-61
2022/01/26 13:20:41;;;;;;;44.28;22.08;;;5.70;99.90;;;;;;5070548;28;20470;-61
2022/01/26 13:23:22;;;;;;;47.03;24.48;;;;;;;;;;5072876;28;20397;-60
2022/01/26 13:26:07;;;;;;;48.78;23.27;;;;;;;;;;5055033;28;20098;-61
2022/01/26 13:29:02;;;;;;;42.42;21.40;;;;;;;;;;5071929;28;20048;-60
2022/01/26 13:34:16;;;;;;;40.15;23.13;;;;;;;;;;5065706;28;20040;-61
2022/01/26 13:42:29;;;;;;;46.88;21.67;;;;;;;;;;5051256;28;20401;-61
2022/01/26 13:47:37;;;;;;;44.58;23.40;;;;;;;;;;5052356;28;20498;-61
2022/01/26 13:50:17;;;;;;;42.47;20.85;;;;;;;;;;5052064;28;20071;-61
2022/01/26 13:52:51;;;;;;;41.33;21.48;;;;;;;;;;5051393;28;20045;-61
2022/01/26 13:55:47;;;;;;;38.03;19.73;;;;;;;;;;5051204;28;20045;-61
2022/01/26 14:01:03;;;;;;;42.83;21.60;;;5.90;99.90;;;;;;5051661;28;20045;-61
2022/01/26 14:03:32;;;;;;;43.50;22.33;;;5.90;99.90;;;;;;5062359;28;20145;-61
2022/01/26 14:05:58;;;;;;;37.28;19.95;;;5.90;99.90;;;;;;5071255;28;20041;-61
2022/01/26 14:08:24;;;;;;;41.85;21.80;;;5.90;99.90;;;;;;5071349;28;20045;-61
2022/01/26 14:10:50;;;;;;;43.92;21.92;;;5.90;99.90;;;;;;5070234;28;20123;-61
2022/01/26 14:13:21;;;;;;;40.45;19.77;;;5.80;99.90;;;;;;5060179;28;20041;-61
2022/01/26 14:15:52;;;;;;;41.50;21.58;;;5.80;99.90;;;;;;5083750;28;20071;-61
2022/01/26 14:20:54;;;;;;;41.78;19.70;;;5.80;99.90;;;;;;5070612;28;20111;-61
2022/01/26 14:26:09;;;;;;;45.83;20.77;;;5.90;99.90;;;;;;5072797;28;20048;-62
2022/01/26 14:28:42;;;;;;;41.88;21.40;;;5.80;99.90;;;;;;5070891;28;20043;-61
2022/01/26 15:09:49;;;;;;;46.20;23.83;;;5.70;99.90;;;;;;5048746;28;20502;-61
2022/01/26 15:34:02;;;;;;;44.20;21.35;;;5.40;99.90;;;;;;5067927;28;20041;-61
2022/01/26 15:44:43;;;;;;;38.88;19.48;;;5.70;99.90;;;;;;5067838;28;20534;-61
2022/01/26 15:49:57;;;;;;;43.00;23.60;;;5.70;99.90;;;;;;5074294;28;20098;-61
2022/01/26 16:21:32;;;;;;;41.90;20.10;;;6.10;99.90;;;;;;5052999;28;20076;-61
2022/01/26 18:39:31;;;;;;;31.83;18.13;;;6.10;99.90;;;;;;5072365;28;20046;-61
2022/01/26 18:50:04;;;;;;;35.75;16.58;;;6.20;99.90;;;;;;4985246;28;20062;-61
2022/01/26 18:52:30;;;;;;;32.28;17.40;;;6.10;99.90;;;;;;5007183;28;20050;-61
2022/01/26 18:54:56;;;;;;;34.13;16.58;;;6.50;99.90;;;;;;4978708;28;20042;-61
2022/01/26 18:57:21;;;;;;;34.97;16.85;;;6.30;99.90;;;;;;4952927;28;20046;-61
2022/01/26 18:59:47;;;;;;;32.97;15.75;;;6.20;99.90;;;;;;4970067;28;20049;-61
2022/01/26 19:02:13;;;;;;;28.90;17.23;;;6.20;99.90;;;;;;5001829;28;20043;-61
2022/01/26 19:04:46;;;;;;;35.00;17.45;;;6.20;99.90;;;;;;5000742;28;20061;-61
2022/01/26 19:07:12;;;;;;;33.92;17.88;;;6.20;99.90;;;;;;4969717;28;20054;-61
2022/01/26 19:09:41;;;;;;;36.88;18.70;;;6.20;99.90;;;;;;4986622;28;20121;-61
2022/01/26 19:12:11;;;;;;;38.25;18.02;;;6.20;99.90;;;;;;4984753;28;20549;-61
2022/01/26 19:14:40;;;;;;;35.65;19.40;;;6.30;99.90;;;;;;5013890;28;20032;-61
2022/01/26 19:17:16;;;;;;;29.85;17.10;;;6.20;99.90;;;;;;5014698;28;20054;-62
2022/01/26 19:19:57;;;;;;;31.88;17.52;;;6.30;99.90;;;;;;4969396;28;20062;-61
2022/01/26 19:27:40;;;;;;;32.20;17.02;;;6.30;99.90;;;;;;4996415;28;20486;-61
2022/01/26 19:51:44;;;;;;;32.03;16.50;;;6.30;99.90;;;;;;4985565;28;20051;-61